createdAt,value
2019-04-19T00:01:52.228Z,15.20
2019-04-19T00:04:16.838Z,15.20
2019-04-19T00:06:46.744Z,15.20
2019-04-19T00:09:28.496Z,15.20
2019-04-19T00:11:58.438Z,15.10
2019-04-19T00:14:16.858Z,15.00
2019-04-19T00:16:45.371Z,15.00
2019-04-19T00:19:31.552Z,15.00
2019-04-19T00:22:08.604Z,14.90
2019-04-19T00:24:14.549Z,14.90
2019-04-19T00:26:44.242Z,14.90
2019-04-19T00:29:21.993Z,14.80
2019-04-19T00:32:02.229Z,14.80
2019-04-19T00:34:14.593Z,14.80
2019-04-19T00:36:44.392Z,14.80
2019-04-19T00:39:45.087Z,14.70
2019-04-19T00:42:35.402Z,14.70
2019-04-19T00:45:18.611Z,14.70
2019-04-19T00:47:43.526Z,14.70
2019-04-19T00:50:07.461Z,14.70
2019-04-19T00:52:42.206Z,14.60
2019-04-19T00:55:12.169Z,14.60
2019-04-19T00:57:38.229Z,14.60
2019-04-19T00:59:59.796Z,14.60
2019-04-19T01:02:28.316Z,14.60
2019-04-19T01:05:03.684Z,14.50
2019-04-19T01:07:32.809Z,14.40
2019-04-19T01:10:15.229Z,14.50
2019-04-19T01:12:45.050Z,14.40
2019-04-19T01:15:09.553Z,14.40
2019-04-19T01:17:47.615Z,14.40
2019-04-19T01:20:02.358Z,14.30
2019-04-19T01:22:31.184Z,14.20
2019-04-19T01:24:58.457Z,14.20
2019-04-19T01:27:29.477Z,14.20
2019-04-19T01:29:59.305Z,14.10
2019-04-19T01:32:28.016Z,14.10
2019-04-19T01:35:00.915Z,14.10
2019-04-19T01:37:28.344Z,14.00
2019-04-19T01:40:13.269Z,14.00
2019-04-19T01:42:44.118Z,14.00
2019-04-19T01:45:29.178Z,13.90
2019-04-19T01:48:13.208Z,13.90
2019-04-19T01:50:59.431Z,13.90
2019-04-19T01:53:29.218Z,13.80
2019-04-19T01:55:43.129Z,13.80
2019-04-19T01:58:16.081Z,13.80
2019-04-19T02:00:49.422Z,13.80
2019-04-19T02:03:12.624Z,13.70
2019-04-19T02:05:45.001Z,13.60
2019-04-19T02:08:14.338Z,13.70
2019-04-19T02:11:29.202Z,13.60
2019-04-19T02:13:59.157Z,13.60
2019-04-19T02:16:22.843Z,13.60
2019-04-19T02:18:47.873Z,13.50
2019-04-19T02:21:25.153Z,13.50
2019-04-19T02:23:51.412Z,13.50
2019-04-19T02:26:19.981Z,13.40
2019-04-19T02:28:47.388Z,13.40
2019-04-19T02:31:37.446Z,13.40
2019-04-19T02:34:21.212Z,13.30
2019-04-19T02:36:51.969Z,13.30
2019-04-19T02:39:21.226Z,13.30
2019-04-19T02:44:12.371Z,13.20
2019-04-19T02:46:55.860Z,13.20
2019-04-19T02:49:21.078Z,13.20
2019-04-19T02:51:50.259Z,13.10
2019-04-19T02:54:17.866Z,13.10
2019-04-19T03:02:32.130Z,13.00
2019-04-19T03:05:04.145Z,13.00
2019-04-19T03:06:56.105Z,12.90
2019-04-19T03:09:24.286Z,12.90
2019-04-19T03:12:06.109Z,12.90
2019-04-19T03:14:44.151Z,12.90
2019-04-19T03:17:11.329Z,12.90
2019-04-19T03:19:47.163Z,12.80
2019-04-19T03:22:15.087Z,12.80
2019-04-19T03:24:42.394Z,12.80
2019-04-19T03:27:04.714Z,12.80
2019-04-19T03:29:31.988Z,12.70
2019-04-19T03:32:35.701Z,12.70
2019-04-19T03:37:14.373Z,12.60
2019-04-19T03:39:44.610Z,12.60
2019-04-19T03:42:27.926Z,12.60
2019-04-19T03:44:42.845Z,12.60
2019-04-19T03:47:16.018Z,12.60
2019-04-19T03:49:45.118Z,12.60
2019-04-19T03:52:20.345Z,12.50
2019-04-19T03:54:43.974Z,12.50
2019-04-19T03:57:15.525Z,12.50
2019-04-19T03:59:31.598Z,12.40
2019-04-19T04:02:02.326Z,12.30
2019-04-19T04:04:33.653Z,12.30
2019-04-19T04:07:07.118Z,12.30
2019-04-19T04:09:41.744Z,12.20
2019-04-19T04:12:27.520Z,12.20
2019-04-19T04:15:02.692Z,12.20
2019-04-19T04:17:18.784Z,12.10
2019-04-19T04:19:48.315Z,12.10
2019-04-19T04:22:24.106Z,12.10
2019-04-19T04:24:58.650Z,12.10
2019-04-19T04:27:31.629Z,12.10
2019-04-19T04:30:00.317Z,12.00
2019-04-19T04:32:34.122Z,12.00
2019-04-19T04:35:02.043Z,12.00
2019-04-19T04:37:34.598Z,11.90
2019-04-19T04:39:49.733Z,11.90
2019-04-19T04:42:26.909Z,11.90
2019-04-19T04:45:15.299Z,11.90
2019-04-19T04:47:53.413Z,11.90
2019-04-19T04:50:51.229Z,11.80
2019-04-19T04:52:58.615Z,11.80
2019-04-19T04:55:44.990Z,11.80
2019-04-19T04:58:18.685Z,11.80
2019-04-19T05:00:47.271Z,11.80
2019-04-19T05:03:22.975Z,11.80
2019-04-19T05:05:55.357Z,11.70
2019-04-19T05:08:25.500Z,11.80
2019-04-19T05:10:57.306Z,11.80
2019-04-19T05:13:46.993Z,11.80
2019-04-19T05:15:58.089Z,11.80
2019-04-19T05:18:40.151Z,11.80
2019-04-19T05:20:50.827Z,11.80
2019-04-19T05:23:30.335Z,11.80
2019-04-19T05:26:04.766Z,11.80
2019-04-19T05:28:23.599Z,11.90
2019-04-19T05:30:49.290Z,11.90
2019-04-19T05:33:21.110Z,11.90
2019-04-19T05:36:04.639Z,11.90
2019-04-19T05:38:30.453Z,11.90
2019-04-19T05:40:59.056Z,12.00
2019-04-19T05:43:59.675Z,11.90
2019-04-19T05:46:19.084Z,12.00
2019-04-19T05:48:33.660Z,12.10
2019-04-19T05:51:23.844Z,12.10
2019-04-19T05:53:33.050Z,12.10
2019-04-19T05:55:54.380Z,12.20
2019-04-19T05:58:38.470Z,12.20
2019-04-19T06:01:08.115Z,12.30
2019-04-19T06:03:41.374Z,12.30
2019-04-19T06:06:33.783Z,12.40
2019-04-19T06:08:29.410Z,12.40
2019-04-19T06:10:59.235Z,12.50
2019-04-19T06:13:24.052Z,12.50
2019-04-19T06:16:12.831Z,12.60
2019-04-19T06:18:36.283Z,12.70
2019-04-19T06:21:17.186Z,12.70
2019-04-19T06:23:51.260Z,12.80
2019-04-19T06:26:42.153Z,12.90
2019-04-19T06:28:51.626Z,12.90
2019-04-19T06:31:24.189Z,13.00
2019-04-19T06:33:42.289Z,13.10
2019-04-19T06:36:01.008Z,13.10
2019-04-19T06:38:26.797Z,13.20
2019-04-19T06:41:03.377Z,13.20
2019-04-19T06:43:38.569Z,13.30
2019-04-19T06:46:10.563Z,13.40
2019-04-19T06:48:29.967Z,13.50
2019-04-19T06:51:01.879Z,13.50
2019-04-19T06:53:34.310Z,13.60
2019-04-19T06:56:05.875Z,13.70
2019-04-19T06:58:38.165Z,13.80
2019-04-19T07:01:11.693Z,13.80
2019-04-19T07:03:27.773Z,13.90
2019-04-19T07:06:14.239Z,14.00
2019-04-19T07:11:16.360Z,14.10
2019-04-19T07:13:38.504Z,14.10
2019-04-19T07:18:40.184Z,14.30
2019-04-19T07:21:19.947Z,14.40
2019-04-19T07:23:49.892Z,14.50
2019-04-19T07:26:20.362Z,14.50
2019-04-19T07:28:31.818Z,14.60
2019-04-19T07:31:02.957Z,14.70
2019-04-19T07:33:41.503Z,14.80
2019-04-19T07:36:19.193Z,14.90
2019-04-19T07:38:53.338Z,14.90
2019-04-19T07:41:16.615Z,15.00
2019-04-19T07:43:48.319Z,15.00
2019-04-19T07:46:26.536Z,15.10
2019-04-19T07:48:38.491Z,15.20
2019-04-19T07:51:13.495Z,15.20
2019-04-19T07:53:43.449Z,15.30
2019-04-19T07:56:17.553Z,15.30
2019-04-19T07:58:58.567Z,15.40
2019-04-19T08:04:24.078Z,15.50
2019-04-19T08:06:43.718Z,15.60
2019-04-19T08:09:02.281Z,15.70
2019-04-19T08:11:57.671Z,15.80
2019-04-19T08:14:16.830Z,15.80
2019-04-19T08:17:04.431Z,15.90
2019-04-19T08:28:51.596Z,16.30
2019-04-19T08:31:12.324Z,16.40
2019-04-19T08:33:41.673Z,16.40
2019-04-19T08:36:14.051Z,16.50
2019-04-19T08:39:05.384Z,16.50
2019-04-19T08:41:21.587Z,16.60
2019-04-19T08:43:59.550Z,16.70
2019-04-19T08:46:17.655Z,16.70
2019-04-19T08:49:06.235Z,16.80
2019-04-19T08:51:38.624Z,16.90
2019-04-19T08:54:28.720Z,17.00
2019-04-19T08:56:44.926Z,17.00
2019-04-19T08:59:34.938Z,17.10
2019-04-19T09:01:55.768Z,17.20
2019-04-19T09:04:26.955Z,17.20
2019-04-19T09:09:28.179Z,17.40
2019-04-19T09:11:57.405Z,17.40
2019-04-19T09:14:30.357Z,17.50
2019-04-19T09:17:04.906Z,17.60
2019-04-19T09:19:43.574Z,17.70
2019-04-19T09:21:52.021Z,17.70
2019-04-19T09:24:15.980Z,17.80
2019-04-19T09:26:58.971Z,17.90
2019-04-19T09:29:33.544Z,18.00
2019-04-19T09:31:51.640Z,18.10
2019-04-19T09:34:16.277Z,18.20
2019-04-19T09:36:51.964Z,18.20
2019-04-19T09:39:29.732Z,18.30
2019-04-19T09:41:46.616Z,18.40
2019-04-19T09:44:22.766Z,18.40
2019-04-19T09:46:42.580Z,18.50
2019-04-19T09:49:23.534Z,18.60
2019-04-19T09:51:55.364Z,18.70
2019-04-19T09:54:33.851Z,18.80
2019-04-19T09:56:57.987Z,18.80
2019-04-19T09:59:21.307Z,18.90
2019-04-19T10:01:49.689Z,19.00
2019-04-19T10:04:12.759Z,19.10
2019-04-19T10:06:42.722Z,19.10
2019-04-19T10:09:18.777Z,19.20
2019-04-19T10:11:46.406Z,19.30
2019-04-19T10:14:15.170Z,19.50
2019-04-19T10:16:54.813Z,19.60
2019-04-19T10:19:24.573Z,19.70
2019-04-19T10:21:54.767Z,19.80
2019-04-19T10:24:24.257Z,19.90
2019-04-19T10:26:54.865Z,20.00
2019-04-19T10:29:29.775Z,20.10
2019-04-19T10:32:02.137Z,20.20
2019-04-19T10:34:30.671Z,20.30
2019-04-19T10:37:00.266Z,20.40
2019-04-19T10:39:29.960Z,20.50
2019-04-19T10:41:59.096Z,20.70
2019-04-19T10:44:27.678Z,20.70
2019-04-19T10:46:56.598Z,20.90
2019-04-19T10:49:33.390Z,21.00
2019-04-19T10:52:00.636Z,21.10
2019-04-19T10:54:29.217Z,21.20
2019-04-19T10:57:02.279Z,21.30
2019-04-19T10:59:32.182Z,21.40
2019-04-19T11:02:02.007Z,21.50
2019-04-19T11:04:31.125Z,21.70
2019-04-19T11:07:00.898Z,21.80
2019-04-19T11:09:29.322Z,22.00
2019-04-19T11:11:58.109Z,22.20
2019-04-19T11:14:26.694Z,22.30
2019-04-19T11:16:55.685Z,22.40
2019-04-19T11:19:43.418Z,22.60
2019-04-19T11:21:55.918Z,22.70
2019-04-19T11:24:25.530Z,22.80
2019-04-19T11:26:55.081Z,23.10
2019-04-19T11:29:23.996Z,23.30
2019-04-19T11:32:00.079Z,23.30
2019-04-19T11:34:31.244Z,23.40
2019-04-19T11:37:00.075Z,23.60
2019-04-19T11:39:28.645Z,23.60
2019-04-19T11:41:57.160Z,23.80
2019-04-19T11:44:27.449Z,23.90
2019-04-19T11:46:56.197Z,24.00
2019-04-19T11:49:32.217Z,24.10
2019-04-19T11:51:55.333Z,24.20
2019-04-19T11:54:24.216Z,24.30
2019-04-19T11:57:10.888Z,24.40
2019-04-19T11:59:50.817Z,24.50
2019-04-19T12:02:22.761Z,24.60
2019-04-19T12:04:52.357Z,24.80
2019-04-19T12:07:20.966Z,25.00
2019-04-19T12:09:50.318Z,25.10
2019-04-19T12:12:19.228Z,25.10
2019-04-19T12:14:48.599Z,25.20
2019-04-19T12:17:18.291Z,25.30
2019-04-19T12:19:52.945Z,25.50
2019-04-19T12:22:17.226Z,25.60
2019-04-19T12:24:52.055Z,25.80
2019-04-19T12:27:18.931Z,25.90
2019-04-19T12:29:49.543Z,26.00
2019-04-19T12:32:17.508Z,25.90
2019-04-19T12:34:47.173Z,26.00
2019-04-19T12:37:15.748Z,26.00
2019-04-19T12:39:45.174Z,26.20
2019-04-19T12:42:15.722Z,26.30
2019-04-19T12:44:44.188Z,26.20
2019-04-19T12:47:13.050Z,26.30
2019-04-19T12:49:50.971Z,26.30
2019-04-19T12:52:12.354Z,26.30
2019-04-19T12:54:41.745Z,26.50
2019-04-19T12:57:10.376Z,26.60
2019-04-19T12:59:39.997Z,26.90
2019-04-19T13:02:11.657Z,27.00
2019-04-19T13:04:42.336Z,27.20
2019-04-19T13:07:13.102Z,27.30
2019-04-19T13:09:42.336Z,27.30
2019-04-19T13:12:10.918Z,27.40
2019-04-19T13:14:39.704Z,27.60
2019-04-19T13:17:08.411Z,27.70
2019-04-19T13:19:37.503Z,27.90
2019-04-19T13:22:06.062Z,28.00
2019-04-19T13:24:34.487Z,28.00
2019-04-19T13:27:03.353Z,28.00
2019-04-19T13:29:31.846Z,28.10
2019-04-19T13:32:01.545Z,28.20
2019-04-19T13:34:31.425Z,28.20
2019-04-19T13:37:05.198Z,28.30
2019-04-19T13:39:52.208Z,28.20
2019-04-19T13:42:23.046Z,28.20
2019-04-19T13:44:52.623Z,28.30
2019-04-19T13:47:22.334Z,28.30
2019-04-19T13:49:53.274Z,28.30
2019-04-19T13:52:21.265Z,28.50
2019-04-19T13:54:50.493Z,28.60
2019-04-19T13:57:19.689Z,28.70
2019-04-19T13:59:56.516Z,28.70
2019-04-19T14:02:20.552Z,28.70
2019-04-19T14:04:49.885Z,28.70
2019-04-19T14:07:19.055Z,28.90
2019-04-19T14:09:47.738Z,28.90
2019-04-19T14:12:16.267Z,29.00
2019-04-19T14:14:45.129Z,29.10
2019-04-19T14:17:13.886Z,29.10
2019-04-19T14:19:42.871Z,29.10
2019-04-19T14:22:11.375Z,29.00
2019-04-19T14:24:39.834Z,29.00
2019-04-19T14:27:09.286Z,29.00
2019-04-19T14:29:37.817Z,29.10
2019-04-19T14:32:07.289Z,29.10
2019-04-19T14:34:35.776Z,29.30
2019-04-19T14:37:05.137Z,29.30
2019-04-19T14:39:34.445Z,29.10
2019-04-19T14:42:03.496Z,29.10
2019-04-19T14:44:33.532Z,29.10
2019-04-19T14:47:03.149Z,29.00
2019-04-19T14:49:32.735Z,29.10
2019-04-19T14:52:01.433Z,29.10
2019-04-19T14:54:30.033Z,29.10
2019-04-19T14:56:58.767Z,29.00
2019-04-19T14:59:27.330Z,28.80
2019-04-19T15:02:06.987Z,28.70
2019-04-19T15:04:46.896Z,28.60
2019-04-19T15:07:16.611Z,28.60
2019-04-19T15:09:45.914Z,28.70
2019-04-19T15:12:14.406Z,28.80
2019-04-19T15:14:42.849Z,28.90
2019-04-19T15:17:11.601Z,28.90
2019-04-19T15:19:40.132Z,29.00
2019-04-19T15:22:08.706Z,28.80
2019-04-19T15:24:37.289Z,28.80
2019-04-19T15:27:08.177Z,28.70
2019-04-19T15:29:36.945Z,28.60
2019-04-19T15:32:06.335Z,28.50
2019-04-19T15:34:35.933Z,28.30
2019-04-19T15:37:04.497Z,28.20
2019-04-19T15:39:33.747Z,28.20
2019-04-19T15:42:02.479Z,28.00
2019-04-19T15:44:30.992Z,27.90
2019-04-19T15:46:59.956Z,27.90
2019-04-19T15:49:28.457Z,27.90
2019-04-19T15:51:59.816Z,27.90
2019-04-19T15:54:28.022Z,27.80
2019-04-19T15:56:56.659Z,27.60
2019-04-19T15:59:27.198Z,27.40
2019-04-19T16:02:04.033Z,27.40
2019-04-19T16:04:52.279Z,27.40
2019-04-19T16:07:22.461Z,27.40
2019-04-19T16:10:07.087Z,27.20
2019-04-19T16:12:35.980Z,27.10
2019-04-19T16:15:06.603Z,27.00
2019-04-19T16:17:35.061Z,27.00
2019-04-19T16:20:07.310Z,26.90
2019-04-19T16:22:36.280Z,26.80
2019-04-19T16:25:07.378Z,26.80
2019-04-19T16:27:35.944Z,26.70
2019-04-19T16:30:06.058Z,26.60
2019-04-19T16:32:35.045Z,26.60
2019-04-19T16:35:05.571Z,26.50
2019-04-19T16:37:34.966Z,26.40
2019-04-19T16:40:04.318Z,26.20
2019-04-19T16:42:32.798Z,26.10
2019-04-19T16:45:01.875Z,26.00
2019-04-19T16:47:31.231Z,25.80
2019-04-19T16:50:00.563Z,25.60
2019-04-19T16:52:29.096Z,25.50
2019-04-19T16:55:00.324Z,25.40
2019-04-19T16:57:30.358Z,25.30
2019-04-19T16:59:57.934Z,25.20
2019-04-19T17:02:26.979Z,25.00
2019-04-19T17:04:56.655Z,25.00
2019-04-19T17:07:25.246Z,24.80
2019-04-19T17:09:53.902Z,24.70
2019-04-19T17:12:22.381Z,24.60
2019-04-19T17:14:52.816Z,24.50
2019-04-19T17:17:38.981Z,24.40
2019-04-19T17:20:09.306Z,24.40
2019-04-19T17:22:39.066Z,24.40
2019-04-19T17:25:10.993Z,24.30
2019-04-19T17:27:41.089Z,24.20
2019-04-19T17:30:12.723Z,24.20
2019-04-19T17:32:42.023Z,24.10
2019-04-19T17:35:14.282Z,24.10
2019-04-19T17:37:44.985Z,24.10
2019-04-19T17:40:14.548Z,24.00
2019-04-19T17:42:44.452Z,24.00
2019-04-19T17:45:13.680Z,23.90
2019-04-19T17:47:43.732Z,23.90
2019-04-19T17:50:14.436Z,23.80
2019-04-19T17:52:42.942Z,23.80
2019-04-19T17:55:20.392Z,23.80
2019-04-19T17:57:42.920Z,23.70
2019-04-19T18:00:12.338Z,23.70
2019-04-19T18:02:41.280Z,23.60
2019-04-19T18:05:10.173Z,23.60
2019-04-19T18:07:43.850Z,23.60
2019-04-19T18:10:13.524Z,23.50
2019-04-19T18:12:39.349Z,23.50
2019-04-19T18:15:11.879Z,23.40
2019-04-19T18:17:40.478Z,23.40
2019-04-19T18:20:14.029Z,23.40
2019-04-19T18:22:55.434Z,23.30
2019-04-19T18:25:10.739Z,23.20
2019-04-19T18:27:46.113Z,23.20
2019-04-19T18:30:11.755Z,23.10
2019-04-19T18:32:54.256Z,23.10
2019-04-19T18:35:28.845Z,23.10
2019-04-19T18:37:53.332Z,23.00
2019-04-19T18:40:22.043Z,22.90
2019-04-19T18:43:06.693Z,22.90
2019-04-19T18:45:25.047Z,22.80
2019-04-19T18:47:51.086Z,22.70
2019-04-19T18:50:20.597Z,22.60
2019-04-19T18:52:53.494Z,22.50
2019-04-19T18:55:27.557Z,22.40
2019-04-19T18:57:49.816Z,22.40
2019-04-19T19:00:18.853Z,22.30
2019-04-19T19:02:54.075Z,22.20
2019-04-19T19:05:18.259Z,22.10
2019-04-19T19:07:49.369Z,22.00
2019-04-19T19:10:24.490Z,21.90
2019-04-19T19:12:49.616Z,21.90
2019-04-19T19:15:18.682Z,21.80
2019-04-19T19:17:52.925Z,21.70
2019-04-19T19:20:22.269Z,21.70
2019-04-19T19:23:05.489Z,21.60
2019-04-19T19:25:34.381Z,21.60
2019-04-19T19:27:48.776Z,21.60
2019-04-19T19:30:20.645Z,21.60
2019-04-19T19:32:55.068Z,21.50
2019-04-19T19:35:23.134Z,21.60
2019-04-19T19:37:50.858Z,21.50
2019-04-19T19:40:29.569Z,21.50
2019-04-19T19:43:08.769Z,21.50
2019-04-19T19:45:36.352Z,21.40
2019-04-19T19:48:19.780Z,21.40
2019-04-19T19:50:51.811Z,21.30
2019-04-19T19:53:25.619Z,21.30
2019-04-19T19:55:53.193Z,21.30
2019-04-19T19:58:05.881Z,21.20
2019-04-19T20:00:37.976Z,21.20
2019-04-19T20:03:08.958Z,21.20
2019-04-19T20:05:34.394Z,21.10
2019-04-19T20:08:00.118Z,21.10
2019-04-19T20:10:36.118Z,21.00
2019-04-19T20:13:02.629Z,21.00
2019-04-19T20:15:33.847Z,21.00
2019-04-19T20:18:01.410Z,20.90
2019-04-19T20:20:34.213Z,20.80
2019-04-19T20:23:00.294Z,20.70
2019-04-19T20:25:38.397Z,20.60
2019-04-19T20:27:59.515Z,20.60
2019-04-19T20:30:36.402Z,20.60
2019-04-19T20:33:02.556Z,20.50
2019-04-19T20:35:29.971Z,20.50
2019-04-19T20:38:01.619Z,20.40
2019-04-19T20:40:30.867Z,20.40
2019-04-19T20:43:20.771Z,20.30
2019-04-19T20:45:38.899Z,20.30
2019-04-19T20:48:07.970Z,20.20
2019-04-19T20:50:44.924Z,20.20
2019-04-19T20:53:13.781Z,20.20
2019-04-19T20:55:55.532Z,20.10
2019-04-19T20:58:24.059Z,20.00
2019-04-19T21:00:42.389Z,20.00
2019-04-19T21:03:11.053Z,19.90
2019-04-19T21:05:43.297Z,19.90
2019-04-19T21:08:12.655Z,19.80
2019-04-19T21:10:49.909Z,19.80
2019-04-19T21:13:12.824Z,19.70
2019-04-19T21:15:41.644Z,19.70
2019-04-19T21:18:19.073Z,19.50
2019-04-19T21:20:40.949Z,19.40
2019-04-19T21:23:16.192Z,19.40
2019-04-19T21:25:46.516Z,19.30
2019-04-19T21:28:10.554Z,19.20
2019-04-19T21:30:45.043Z,19.20
2019-04-19T21:33:13.418Z,19.10
2019-04-19T21:35:49.588Z,19.00
2019-04-19T21:38:14.572Z,19.00
2019-04-19T21:40:43.087Z,18.90
2019-04-19T21:43:11.233Z,18.80
2019-04-19T21:45:43.212Z,18.80
2019-04-19T21:48:10.991Z,18.70
2019-04-19T21:50:43.793Z,18.60
2019-04-19T21:53:11.157Z,18.60
2019-04-19T21:55:42.691Z,18.50
2019-04-19T21:58:13.490Z,18.40
2019-04-19T22:00:54.494Z,18.40
2019-04-19T22:03:21.280Z,18.30
2019-04-19T22:05:47.443Z,18.20
2019-04-19T22:08:24.775Z,18.20
2019-04-19T22:10:48.528Z,18.20
2019-04-19T22:13:16.745Z,18.10
2019-04-19T22:15:52.102Z,18.10
2019-04-19T22:18:15.445Z,18.00
2019-04-19T22:20:45.997Z,17.90
2019-04-19T22:23:16.183Z,17.90
2019-04-19T22:25:52.566Z,17.80
2019-04-19T22:28:15.279Z,17.80
2019-04-19T22:30:49.676Z,17.70
2019-04-19T22:33:14.408Z,17.70
2019-04-19T22:35:46.961Z,17.70
2019-04-19T22:38:17.910Z,17.60
2019-04-19T22:40:43.447Z,17.50
2019-04-19T22:43:14.661Z,17.50
2019-04-19T22:45:42.422Z,17.50
2019-04-19T22:48:16.368Z,17.40
2019-04-19T22:50:42.391Z,17.40
2019-04-19T22:53:10.927Z,17.30
2019-04-19T22:55:48.437Z,17.30
2019-04-19T22:58:16.473Z,17.20
2019-04-19T23:00:42.207Z,17.10
2019-04-19T23:03:25.371Z,17.00
2019-04-19T23:05:47.054Z,17.00
2019-04-19T23:08:17.377Z,16.90
2019-04-19T23:10:52.075Z,16.90
2019-04-19T23:13:23.192Z,16.80
2019-04-19T23:15:57.222Z,16.80
2019-04-19T23:18:24.850Z,16.70
2019-04-19T23:20:55.738Z,16.70
2019-04-19T23:23:25.537Z,16.60
2019-04-19T23:26:08.908Z,16.60
2019-04-19T23:28:28.263Z,16.50
2019-04-19T23:31:00.274Z,16.50
2019-04-19T23:33:24.478Z,16.40
2019-04-19T23:35:53.348Z,16.40
2019-04-19T23:38:25.358Z,16.40
2019-04-19T23:40:53.118Z,16.40
2019-04-19T23:43:27.670Z,16.30
2019-04-19T23:45:52.975Z,16.30
2019-04-19T23:48:26.421Z,16.20
2019-04-19T23:50:52.387Z,16.10
2019-04-19T23:53:23.242Z,16.10
2019-04-19T23:55:51.008Z,16.00
2019-04-19T23:58:28.191Z,15.90
